sensor_id;sensor_type;location;lat;lon;timestamp;pressure;altitude;pressure_sealevel;temperature;humidity
69198;BME280;56311;50.298;8.514;2023-07-29T00:00:00;97180.0;;;18.0;100.0
69198;BME280;56311;50.298;8.514;2023-07-29T00:02:00;97180.0;;;18.1;100.0
69198;BME280;56311;50.298;8.514;2023-07-29T00:04:00;97180.0;;;18.2;100.0
69198;BME280;56311;50.298;8.514;2023-07-29T00:06:01;97180.0;;;18.0;100.0
69198;BME280;56311;50.298;8.514;2023-07-29T00:08:00;97180.0;;;18.1;100.0
69198;BME280;56311;50.298;8.514;2023-07-29T00:10:00;97170.0;;;18.3;100.0
69198;BME280;56311;50.298;8.514;2023-07-29T00:12:00;97170.0;;;18.4;100.0
69198;BME280;56311;50.298;8.514;2023-07-29T00:14:00;97170.0;;;18.5;100.0
69198;BME280;56311;50.298;8.514;2023-07-29T00:16:01;97170.0;;;18.7;100.0
69198;BME280;56311;50.298;8.514;2023-07-29T00:18:00;97160.0;;;18.7;100.0
69198;BME280;56311;50.298;8.514;2023-07-29T00:20:00;97160.0;;;18.8;100.0
69198;BME280;56311;50.298;8.514;2023-07-29T00:22:00;97150.0;;;18.8;100.0
69198;BME280;56311;50.298;8.514;2023-07-29T00:24:00;97150.0;;;18.9;100.0
69198;BME280;56311;50.298;8.514;2023-07-29T00:26:00;97150.0;;;19.0;100.0
69198;BME280;56311;50.298;8.514;2023-07-29T00:28:01;97140.0;;;19.0;100.0
69198;BME280;56311;50.298;8.514;2023-07-29T00:30:00;97140.0;;;19.0;100.0
69198;BME280;56311;50.298;8.514;2023-07-29T00:32:00;97140.0;;;19.0;100.0
69198;BME280;56311;50.298;8.514;2023-07-29T00:34:00;97130.0;;;19.0;100.0
69198;BME280;56311;50.298;8.514;2023-07-29T00:36:00;97140.0;;;19.1;100.0
69198;BME280;56311;50.298;8.514;2023-07-29T00:38:00;97140.0;;;19.1;100.0
69198;BME280;56311;50.298;8.514;2023-07-29T00:40:01;97140.0;;;19.1;100.0
69198;BME280;56311;50.298;8.514;2023-07-29T00:42:00;97130.0;;;19.1;100.0
69198;BME280;56311;50.298;8.514;2023-07-29T00:44:00;97130.0;;;19.1;100.0
69198;BME280;56311;50.298;8.514;2023-07-29T00:46:00;97130.0;;;19.2;100.0
69198;BME280;56311;50.298;8.514;2023-07-29T00:48:01;97130.0;;;19.1;100.0
69198;BME280;56311;50.298;8.514;2023-07-29T00:50:00;97130.0;;;19.1;100.0
69198;BME280;56311;50.298;8.514;2023-07-29T00:52:01;97130.0;;;19.2;100.0
69198;BME280;56311;50.298;8.514;2023-07-29T00:54:00;97130.0;;;19.2;100.0
69198;BME280;56311;50.298;8.514;2023-07-29T00:56:00;97130.0;;;19.1;100.0
69198;BME280;56311;50.298;8.514;2023-07-29T00:58:00;97130.0;;;19.2;100.0
69198;BME280;56311;50.298;8.514;2023-07-29T01:00:01;97130.0;;;19.2;100.0
69198;BME280;56311;50.298;8.514;2023-07-29T01:02:00;97130.0;;;19.2;100.0
69198;BME280;56311;50.298;8.514;2023-07-29T01:04:00;97130.0;;;19.2;100.0
69198;BME280;56311;50.298;8.514;2023-07-29T01:06:08;97130.0;;;19.2;100.0
69198;BME280;56311;50.298;8.514;2023-07-29T01:08:06;97120.0;;;19.2;100.0
69198;BME280;56311;50.298;8.514;2023-07-29T01:10:02;97120.0;;;19.2;100.0
69198;BME280;56311;50.298;8.514;2023-07-29T01:12:07;97110.0;;;19.1;100.0
69198;BME280;56311;50.298;8.514;2023-07-29T01:14:05;97110.0;;;19.1;100.0
69198;BME280;56311;50.298;8.514;2023-07-29T01:16:04;97110.0;;;19.2;100.0
69198;BME280;56311;50.298;8.514;2023-07-29T01:18:05;97110.0;;;19.2;100.0
69198;BME280;56311;50.298;8.514;2023-07-29T01:20:04;97110.0;;;19.2;100.0
69198;BME280;56311;50.298;8.514;2023-07-29T01:22:00;97110.0;;;19.2;100.0
69198;BME280;56311;50.298;8.514;2023-07-29T01:24:00;97110.0;;;19.2;100.0
69198;BME280;56311;50.298;8.514;2023-07-29T01:26:00;97100.0;;;19.2;100.0
69198;BME280;56311;50.298;8.514;2023-07-29T01:28:00;97110.0;;;19.2;100.0
69198;BME280;56311;50.298;8.514;2023-07-29T01:30:01;97110.0;;;19.1;100.0
69198;BME280;56311;50.298;8.514;2023-07-29T01:32:07;97110.0;;;19.0;100.0
69198;BME280;56311;50.298;8.514;2023-07-29T01:34:06;97110.0;;;19.1;100.0
69198;BME280;56311;50.298;8.514;2023-07-29T01:36:03;97110.0;;;19.1;100.0
69198;BME280;56311;50.298;8.514;2023-07-29T01:38:03;97110.0;;;19.1;100.0
69198;BME280;56311;50.298;8.514;2023-07-29T01:40:00;97110.0;;;19.1;100.0
69198;BME280;56311;50.298;8.514;2023-07-29T01:42:00;97100.0;;;19.1;100.0
69198;BME280;56311;50.298;8.514;2023-07-29T01:44:01;97100.0;;;19.0;100.0
69198;BME280;56311;50.298;8.514;2023-07-29T01:46:00;97100.0;;;19.1;100.0
69198;BME280;56311;50.298;8.514;2023-07-29T01:48:00;97090.0;;;19.2;100.0
69198;BME280;56311;50.298;8.514;2023-07-29T01:50:00;97090.0;;;19.2;100.0
69198;BME280;56311;50.298;8.514;2023-07-29T01:52:00;97080.0;;;19.2;100.0
69198;BME280;56311;50.298;8.514;2023-07-29T01:54:01;97090.0;;;19.2;100.0
69198;BME280;56311;50.298;8.514;2023-07-29T01:56:02;97090.0;;;19.1;100.0
69198;BME280;56311;50.298;8.514;2023-07-29T01:58:00;97090.0;;;19.1;100.0
69198;BME280;56311;50.298;8.514;2023-07-29T02:00:01;97090.0;;;19.0;100.0
69198;BME280;56311;50.298;8.514;2023-07-29T02:02:00;97080.0;;;19.0;100.0
69198;BME280;56311;50.298;8.514;2023-07-29T02:04:00;97080.0;;;19.0;100.0
69198;BME280;56311;50.298;8.514;2023-07-29T02:06:00;97080.0;;;19.0;100.0
69198;BME280;56311;50.298;8.514;2023-07-29T02:08:01;97080.0;;;19.0;100.0
69198;BME280;56311;50.298;8.514;2023-07-29T02:10:00;97080.0;;;18.9;100.0
69198;BME280;56311;50.298;8.514;2023-07-29T02:12:00;97070.0;;;18.9;100.0
69198;BME280;56311;50.298;8.514;2023-07-29T02:14:00;97080.0;;;18.9;100.0
69198;BME280;56311;50.298;8.514;2023-07-29T02:16:00;97070.0;;;18.8;100.0
69198;BME280;56311;50.298;8.514;2023-07-29T02:18:00;97070.0;;;18.6;100.0
69198;BME280;56311;50.298;8.514;2023-07-29T02:20:01;97070.0;;;18.6;100.0
69198;BME280;56311;50.298;8.514;2023-07-29T02:22:00;97070.0;;;18.6;100.0
69198;BME280;56311;50.298;8.514;2023-07-29T02:24:00;97070.0;;;18.6;100.0
69198;BME280;56311;50.298;8.514;2023-07-29T02:26:00;97080.0;;;18.6;100.0
69198;BME280;56311;50.298;8.514;2023-07-29T02:28:00;97080.0;;;18.6;100.0
69198;BME280;56311;50.298;8.514;2023-07-29T02:30:00;97070.0;;;18.6;100.0
69198;BME280;56311;50.298;8.514;2023-07-29T02:32:01;97070.0;;;18.6;100.0
69198;BME280;56311;50.298;8.514;2023-07-29T02:34:00;97080.0;;;18.5;100.0
69198;BME280;56311;50.298;8.514;2023-07-29T02:36:01;97070.0;;;18.5;100.0
69198;BME280;56311;50.298;8.514;2023-07-29T02:38:00;97070.0;;;18.6;100.0
69198;BME280;56311;50.298;8.514;2023-07-29T02:40:00;97060.0;;;18.7;100.0
69198;BME280;56311;50.298;8.514;2023-07-29T02:42:00;97060.0;;;18.8;100.0
69198;BME280;56311;50.298;8.514;2023-07-29T02:44:01;97060.0;;;18.6;100.0
69198;BME280;56311;50.298;8.514;2023-07-29T02:46:00;97060.0;;;18.6;100.0
69198;BME280;56311;50.298;8.514;2023-07-29T02:48:00;97060.0;;;18.6;100.0
69198;BME280;56311;50.298;8.514;2023-07-29T02:50:00;97060.0;;;18.6;100.0
69198;BME280;56311;50.298;8.514;2023-07-29T02:52:00;97070.0;;;18.8;100.0
69198;BME280;56311;50.298;8.514;2023-07-29T02:54:00;97060.0;;;18.9;100.0
69198;BME280;56311;50.298;8.514;2023-07-29T02:56:00;97070.0;;;19.0;100.0
69198;BME280;56311;50.298;8.514;2023-07-29T02:58:00;97060.0;;;19.0;100.0
69198;BME280;56311;50.298;8.514;2023-07-29T03:00:00;97050.0;;;19.1;100.0
69198;BME280;56311;50.298;8.514;2023-07-29T03:02:00;97060.0;;;19.1;100.0
69198;BME280;56311;50.298;8.514;2023-07-29T03:04:00;97050.0;;;19.1;100.0
69198;BME280;56311;50.298;8.514;2023-07-29T03:06:02;97050.0;;;19.1;100.0
69198;BME280;56311;50.298;8.514;2023-07-29T03:08:01;97040.0;;;19.2;100.0
69198;BME280;56311;50.298;8.514;2023-07-29T03:10:01;97040.0;;;19.3;100.0
69198;BME280;56311;50.298;8.514;2023-07-29T03:12:00;97030.0;;;19.3;100.0
69198;BME280;56311;50.298;8.514;2023-07-29T03:14:00;97030.0;;;19.3;100.0
69198;BME280;56311;50.298;8.514;2023-07-29T03:16:04;97020.0;;;19.2;100.0
69198;BME280;56311;50.298;8.514;2023-07-29T03:18:00;97030.0;;;19.3;100.0
69198;BME280;56311;50.298;8.514;2023-07-29T03:20:01;97030.0;;;19.2;100.0
69198;BME280;56311;50.298;8.514;2023-07-29T03:22:00;97020.0;;;19.2;100.0
69198;BME280;56311;50.298;8.514;2023-07-29T03:24:00;97010.0;;;19.1;100.0
69198;BME280;56311;50.298;8.514;2023-07-29T03:26:01;97020.0;;;19.1;100.0
69198;BME280;56311;50.298;8.514;2023-07-29T03:28:00;97020.0;;;19.1;100.0
69198;BME280;56311;50.298;8.514;2023-07-29T03:30:00;97020.0;;;19.1;100.0
69198;BME280;56311;50.298;8.514;2023-07-29T03:32:00;97030.0;;;19.1;100.0
69198;BME280;56311;50.298;8.514;2023-07-29T03:34:00;97020.0;;;19.0;100.0
69198;BME280;56311;50.298;8.514;2023-07-29T03:36:00;97020.0;;;19.0;100.0
69198;BME280;56311;50.298;8.514;2023-07-29T03:38:00;97020.0;;;19.0;100.0
69198;BME280;56311;50.298;8.514;2023-07-29T03:40:01;97020.0;;;19.1;100.0
69198;BME280;56311;50.298;8.514;2023-07-29T03:42:00;97020.0;;;19.1;100.0
69198;BME280;56311;50.298;8.514;2023-07-29T03:44:00;97020.0;;;19.1;100.0
69198;BME280;56311;50.298;8.514;2023-07-29T03:46:00;97020.0;;;19.0;100.0
69198;BME280;56311;50.298;8.514;2023-07-29T03:48:01;97030.0;;;18.9;100.0
69198;BME280;56311;50.298;8.514;2023-07-29T03:50:00;97020.0;;;19.0;100.0
69198;BME280;56311;50.298;8.514;2023-07-29T03:52:00;97020.0;;;19.0;100.0
69198;BME280;56311;50.298;8.514;2023-07-29T03:54:01;97020.0;;;19.0;100.0
69198;BME280;56311;50.298;8.514;2023-07-29T03:56:01;97030.0;;;18.9;100.0
69198;BME280;56311;50.298;8.514;2023-07-29T03:58:00;97020.0;;;19.0;100.0
69198;BME280;56311;50.298;8.514;2023-07-29T04:00:00;97020.0;;;18.8;100.0
69198;BME280;56311;50.298;8.514;2023-07-29T04:02:00;97020.0;;;18.8;100.0
69198;BME280;56311;50.298;8.514;2023-07-29T04:04:00;97020.0;;;18.7;100.0
69198;BME280;56311;50.298;8.514;2023-07-29T04:06:00;97030.0;;;18.7;100.0
69198;BME280;56311;50.298;8.514;2023-07-29T04:08:00;97030.0;;;18.7;100.0
69198;BME280;56311;50.298;8.514;2023-07-29T04:10:01;97030.0;;;18.8;100.0
69198;BME280;56311;50.298;8.514;2023-07-29T04:12:00;97030.0;;;18.8;100.0
69198;BME280;56311;50.298;8.514;2023-07-29T04:14:00;97030.0;;;18.8;100.0
69198;BME280;56311;50.298;8.514;2023-07-29T04:16:00;97030.0;;;18.8;100.0
69198;BME280;56311;50.298;8.514;2023-07-29T04:18:00;97030.0;;;18.9;100.0
69198;BME280;56311;50.298;8.514;2023-07-29T04:20:01;97030.0;;;18.9;100.0
69198;BME280;56311;50.298;8.514;2023-07-29T04:22:00;97030.0;;;18.9;100.0
69198;BME280;56311;50.298;8.514;2023-07-29T04:24:00;97030.0;;;18.8;100.0
69198;BME280;56311;50.298;8.514;2023-07-29T04:26:00;97030.0;;;18.8;100.0
69198;BME280;56311;50.298;8.514;2023-07-29T04:28:00;97030.0;;;18.9;100.0
69198;BME280;56311;50.298;8.514;2023-07-29T04:30:00;97030.0;;;18.9;100.0
69198;BME280;56311;50.298;8.514;2023-07-29T04:32:01;97030.0;;;18.8;100.0
69198;BME280;56311;50.298;8.514;2023-07-29T04:34:01;97020.0;;;18.8;100.0
69198;BME280;56311;50.298;8.514;2023-07-29T04:36:00;97020.0;;;18.9;100.0
69198;BME280;56311;50.298;8.514;2023-07-29T04:38:00;97030.0;;;19.0;100.0
69198;BME280;56311;50.298;8.514;2023-07-29T04:40:00;97020.0;;;19.0;100.0
69198;BME280;56311;50.298;8.514;2023-07-29T04:42:00;97030.0;;;19.0;100.0
69198;BME280;56311;50.298;8.514;2023-07-29T04:44:01;97020.0;;;18.9;100.0
69198;BME280;56311;50.298;8.514;2023-07-29T04:46:00;97010.0;;;19.0;100.0
69198;BME280;56311;50.298;8.514;2023-07-29T04:48:00;97010.0;;;19.2;100.0
69198;BME280;56311;50.298;8.514;2023-07-29T04:50:00;97010.0;;;19.1;100.0
69198;BME280;56311;50.298;8.514;2023-07-29T04:52:00;97020.0;;;19.2;100.0
69198;BME280;56311;50.298;8.514;2023-07-29T04:54:01;97020.0;;;19.2;100.0
69198;BME280;56311;50.298;8.514;2023-07-29T04:56:02;97010.0;;;19.2;100.0
69198;BME280;56311;50.298;8.514;2023-07-29T04:58:00;97010.0;;;19.1;100.0
69198;BME280;56311;50.298;8.514;2023-07-29T05:00:00;97010.0;;;19.0;100.0
69198;BME280;56311;50.298;8.514;2023-07-29T05:02:00;97010.0;;;19.0;100.0
69198;BME280;56311;50.298;8.514;2023-07-29T05:04:00;97010.0;;;18.9;100.0
69198;BME280;56311;50.298;8.514;2023-07-29T05:06:01;97010.0;;;19.1;100.0
69198;BME280;56311;50.298;8.514;2023-07-29T05:08:01;97010.0;;;19.2;100.0
69198;BME280;56311;50.298;8.514;2023-07-29T05:10:00;97010.0;;;19.2;100.0
69198;BME280;56311;50.298;8.514;2023-07-29T05:12:00;97000.0;;;19.2;100.0
69198;BME280;56311;50.298;8.514;2023-07-29T05:14:00;97010.0;;;19.1;100.0
69198;BME280;56311;50.298;8.514;2023-07-29T05:16:00;97000.0;;;19.1;100.0
69198;BME280;56311;50.298;8.514;2023-07-29T05:18:01;97010.0;;;19.2;100.0
69198;BME280;56311;50.298;8.514;2023-07-29T05:20:01;97000.0;;;19.3;100.0
69198;BME280;56311;50.298;8.514;2023-07-29T05:22:01;97010.0;;;19.3;100.0
69198;BME280;56311;50.298;8.514;2023-07-29T05:24:00;97000.0;;;19.4;100.0
69198;BME280;56311;50.298;8.514;2023-07-29T05:26:00;97010.0;;;19.4;100.0
69198;BME280;56311;50.298;8.514;2023-07-29T05:28:00;97000.0;;;19.4;100.0
69198;BME280;56311;50.298;8.514;2023-07-29T05:30:00;97000.0;;;19.5;100.0
69198;BME280;56311;50.298;8.514;2023-07-29T05:32:00;97000.0;;;19.5;100.0
69198;BME280;56311;50.298;8.514;2023-07-29T05:34:01;97010.0;;;19.5;100.0
69198;BME280;56311;50.298;8.514;2023-07-29T05:36:01;97020.0;;;19.5;100.0
69198;BME280;56311;50.298;8.514;2023-07-29T05:38:00;97020.0;;;19.5;100.0
69198;BME280;56311;50.298;8.514;2023-07-29T05:40:00;97020.0;;;19.4;100.0
69198;BME280;56311;50.298;8.514;2023-07-29T05:42:00;97020.0;;;19.4;100.0
69198;BME280;56311;50.298;8.514;2023-07-29T05:44:01;97020.0;;;19.4;100.0
69198;BME280;56311;50.298;8.514;2023-07-29T05:46:00;97020.0;;;19.5;100.0
69198;BME280;56311;50.298;8.514;2023-07-29T05:48:00;97020.0;;;19.4;100.0
69198;BME280;56311;50.298;8.514;2023-07-29T05:50:00;97020.0;;;19.3;100.0
69198;BME280;56311;50.298;8.514;2023-07-29T05:52:00;97020.0;;;19.4;100.0
69198;BME280;56311;50.298;8.514;2023-07-29T05:54:00;97030.0;;;19.3;100.0
69198;BME280;56311;50.298;8.514;2023-07-29T05:56:00;97030.0;;;19.3;100.0
69198;BME280;56311;50.298;8.514;2023-07-29T05:58:01;97030.0;;;19.2;100.0
69198;BME280;56311;50.298;8.514;2023-07-29T06:00:00;97030.0;;;19.3;100.0
69198;BME280;56311;50.298;8.514;2023-07-29T06:02:00;97030.0;;;19.3;100.0
69198;BME280;56311;50.298;8.514;2023-07-29T06:04:00;97030.0;;;19.3;100.0
69198;BME280;56311;50.298;8.514;2023-07-29T06:06:00;97040.0;;;19.3;100.0
69198;BME280;56311;50.298;8.514;2023-07-29T06:08:00;97050.0;;;19.3;100.0
69198;BME280;56311;50.298;8.514;2023-07-29T06:10:00;97040.0;;;19.3;100.0
69198;BME280;56311;50.298;8.514;2023-07-29T06:12:00;97040.0;;;19.4;100.0
69198;BME280;56311;50.298;8.514;2023-07-29T06:14:00;97050.0;;;19.4;100.0
69198;BME280;56311;50.298;8.514;2023-07-29T06:16:01;97050.0;;;19.4;100.0
69198;BME280;56311;50.298;8.514;2023-07-29T06:18:00;97060.0;;;19.4;100.0
69198;BME280;56311;50.298;8.514;2023-07-29T06:20:01;97060.0;;;19.4;100.0
69198;BME280;56311;50.298;8.514;2023-07-29T06:22:00;97060.0;;;19.5;100.0
69198;BME280;56311;50.298;8.514;2023-07-29T06:24:00;97060.0;;;19.4;100.0
69198;BME280;56311;50.298;8.514;2023-07-29T06:26:00;97060.0;;;19.4;100.0
69198;BME280;56311;50.298;8.514;2023-07-29T06:28:00;97050.0;;;19.3;100.0
69198;BME280;56311;50.298;8.514;2023-07-29T06:30:00;97050.0;;;19.2;100.0
69198;BME280;56311;50.298;8.514;2023-07-29T06:32:00;97040.0;;;19.2;100.0
69198;BME280;56311;50.298;8.514;2023-07-29T06:34:00;97030.0;;;19.2;100.0
69198;BME280;56311;50.298;8.514;2023-07-29T06:36:00;97040.0;;;19.2;100.0
69198;BME280;56311;50.298;8.514;2023-07-29T06:38:01;97050.0;;;19.0;100.0
69198;BME280;56311;50.298;8.514;2023-07-29T06:40:01;97040.0;;;19.1;100.0
69198;BME280;56311;50.298;8.514;2023-07-29T06:42:00;97030.0;;;19.2;100.0
69198;BME280;56311;50.298;8.514;2023-07-29T06:44:01;97020.0;;;19.1;100.0
69198;BME280;56311;50.298;8.514;2023-07-29T06:46:01;97030.0;;;19.2;100.0
69198;BME280;56311;50.298;8.514;2023-07-29T06:48:00;97040.0;;;19.2;100.0
69198;BME280;56311;50.298;8.514;2023-07-29T06:50:00;97040.0;;;19.3;100.0
69198;BME280;56311;50.298;8.514;2023-07-29T06:52:00;97060.0;;;19.3;100.0
69198;BME280;56311;50.298;8.514;2023-07-29T06:54:00;97060.0;;;19.2;100.0
69198;BME280;56311;50.298;8.514;2023-07-29T06:56:01;97070.0;;;19.2;100.0
69198;BME280;56311;50.298;8.514;2023-07-29T06:58:01;97070.0;;;19.2;100.0
69198;BME280;56311;50.298;8.514;2023-07-29T07:00:00;97080.0;;;19.2;100.0
69198;BME280;56311;50.298;8.514;2023-07-29T07:02:00;97070.0;;;19.3;100.0
69198;BME280;56311;50.298;8.514;2023-07-29T07:04:00;97060.0;;;19.3;100.0
69198;BME280;56311;50.298;8.514;2023-07-29T07:06:00;97060.0;;;19.1;100.0
69198;BME280;56311;50.298;8.514;2023-07-29T07:08:00;97050.0;;;19.1;100.0
69198;BME280;56311;50.298;8.514;2023-07-29T07:10:01;97060.0;;;19.1;100.0
69198;BME280;56311;50.298;8.514;2023-07-29T07:12:00;97070.0;;;19.2;100.0
69198;BME280;56311;50.298;8.514;2023-07-29T07:14:00;97070.0;;;19.1;100.0
69198;BME280;56311;50.298;8.514;2023-07-29T07:16:00;97060.0;;;19.1;100.0
69198;BME280;56311;50.298;8.514;2023-07-29T07:18:00;97060.0;;;19.1;100.0
69198;BME280;56311;50.298;8.514;2023-07-29T07:20:01;97060.0;;;19.1;100.0
69198;BME280;56311;50.298;8.514;2023-07-29T07:22:01;97050.0;;;19.1;100.0
69198;BME280;56311;50.298;8.514;2023-07-29T07:24:01;97050.0;;;19.1;100.0
69198;BME280;56311;50.298;8.514;2023-07-29T07:26:00;97060.0;;;19.1;100.0
69198;BME280;56311;50.298;8.514;2023-07-29T07:28:00;97080.0;;;19.2;100.0
69198;BME280;56311;50.298;8.514;2023-07-29T07:30:00;97090.0;;;19.2;100.0
69198;BME280;56311;50.298;8.514;2023-07-29T07:32:01;97090.0;;;19.3;100.0
69198;BME280;56311;50.298;8.514;2023-07-29T07:34:00;97100.0;;;19.4;100.0
69198;BME280;56311;50.298;8.514;2023-07-29T07:36:01;97090.0;;;19.4;100.0
69198;BME280;56311;50.298;8.514;2023-07-29T07:38:00;97090.0;;;19.4;100.0
69198;BME280;56311;50.298;8.514;2023-07-29T07:40:00;97090.0;;;19.5;100.0
69198;BME280;56311;50.298;8.514;2023-07-29T07:42:00;97100.0;;;19.5;100.0
69198;BME280;56311;50.298;8.514;2023-07-29T07:44:01;97090.0;;;19.7;100.0
69198;BME280;56311;50.298;8.514;2023-07-29T07:46:01;97090.0;;;19.9;100.0
69198;BME280;56311;50.298;8.514;2023-07-29T07:48:00;97090.0;;;19.8;100.0
69198;BME280;56311;50.298;8.514;2023-07-29T07:50:00;97090.0;;;19.9;100.0
69198;BME280;56311;50.298;8.514;2023-07-29T07:52:00;97100.0;;;19.9;100.0
69198;BME280;56311;50.298;8.514;2023-07-29T07:54:00;97090.0;;;19.8;100.0
69198;BME280;56311;50.298;8.514;2023-07-29T07:56:00;97100.0;;;19.9;100.0
69198;BME280;56311;50.298;8.514;2023-07-29T07:58:00;97090.0;;;19.7;100.0
69198;BME280;56311;50.298;8.514;2023-07-29T08:00:00;97090.0;;;19.8;100.0
69198;BME280;56311;50.298;8.514;2023-07-29T08:02:00;97090.0;;;19.8;100.0
69198;BME280;56311;50.298;8.514;2023-07-29T08:04:00;97080.0;;;19.9;100.0
69198;BME280;56311;50.298;8.514;2023-07-29T08:06:00;97080.0;;;20.0;100.0
69198;BME280;56311;50.298;8.514;2023-07-29T08:08:01;97080.0;;;20.0;100.0
69198;BME280;56311;50.298;8.514;2023-07-29T08:10:00;97080.0;;;20.0;100.0
69198;BME280;56311;50.298;8.514;2023-07-29T08:12:00;97090.0;;;20.0;100.0
69198;BME280;56311;50.298;8.514;2023-07-29T08:14:00;97090.0;;;20.1;100.0
69198;BME280;56311;50.298;8.514;2023-07-29T08:16:00;97090.0;;;20.3;100.0
69198;BME280;56311;50.298;8.514;2023-07-29T08:18:00;97080.0;;;20.6;100.0
69198;BME280;56311;50.298;8.514;2023-07-29T08:20:00;97080.0;;;20.9;100.0
69198;BME280;56311;50.298;8.514;2023-07-29T08:22:02;97070.0;;;21.0;100.0
69198;BME280;56311;50.298;8.514;2023-07-29T08:24:00;97070.0;;;21.2;100.0
69198;BME280;56311;50.298;8.514;2023-07-29T08:26:01;97080.0;;;21.5;100.0
69198;BME280;56311;50.298;8.514;2023-07-29T08:28:00;97080.0;;;21.8;100.0
69198;BME280;56311;50.298;8.514;2023-07-29T08:30:00;97090.0;;;21.7;100.0
69198;BME280;56311;50.298;8.514;2023-07-29T08:32:01;97080.0;;;21.7;100.0
69198;BME280;56311;50.298;8.514;2023-07-29T08:34:00;97090.0;;;21.7;99.6
69198;BME280;56311;50.298;8.514;2023-07-29T08:36:00;97090.0;;;22.1;100.0
69198;BME280;56311;50.298;8.514;2023-07-29T08:38:01;97090.0;;;22.3;96.9
69198;BME280;56311;50.298;8.514;2023-07-29T08:40:00;97090.0;;;22.3;94.0
69198;BME280;56311;50.298;8.514;2023-07-29T08:42:02;97090.0;;;22.3;95.1
69198;BME280;56311;50.298;8.514;2023-07-29T08:44:06;97100.0;;;22.5;94.6
69198;BME280;56311;50.298;8.514;2023-07-29T08:46:00;97100.0;;;22.3;96.7
69198;BME280;56311;50.298;8.514;2023-07-29T08:48:02;97100.0;;;22.4;95.8
69198;BME280;56311;50.298;8.514;2023-07-29T08:50:01;97090.0;;;22.4;95.4
69198;BME280;56311;50.298;8.514;2023-07-29T08:52:00;97090.0;;;22.1;93.3
69198;BME280;56311;50.298;8.514;2023-07-29T08:54:01;97090.0;;;22.0;92.7
69198;BME280;56311;50.298;8.514;2023-07-29T08:56:01;97090.0;;;22.1;93.1
69198;BME280;56311;50.298;8.514;2023-07-29T08:58:01;97090.0;;;22.1;91.9
69198;BME280;56311;50.298;8.514;2023-07-29T09:00:01;97100.0;;;22.3;91.2
69198;BME280;56311;50.298;8.514;2023-07-29T09:02:00;97100.0;;;22.4;90.8
69198;BME280;56311;50.298;8.514;2023-07-29T09:04:00;97100.0;;;22.5;86.1
69198;BME280;56311;50.298;8.514;2023-07-29T09:06:02;97090.0;;;22.6;85.5
69198;BME280;56311;50.298;8.514;2023-07-29T09:08:02;97090.0;;;22.4;83.3
69198;BME280;56311;50.298;8.514;2023-07-29T09:10:00;97090.0;;;22.1;86.3
69198;BME280;56311;50.298;8.514;2023-07-29T09:12:00;97090.0;;;22.0;85.7
69198;BME280;56311;50.298;8.514;2023-07-29T09:14:00;97090.0;;;22.1;86.6
69198;BME280;56311;50.298;8.514;2023-07-29T09:16:00;97080.0;;;22.5;84.7
69198;BME280;56311;50.298;8.514;2023-07-29T09:18:09;97080.0;;;22.6;83.7
69198;BME280;56311;50.298;8.514;2023-07-29T09:20:01;97090.0;;;22.9;82.7
69198;BME280;56311;50.298;8.514;2023-07-29T09:22:00;97090.0;;;23.0;82.7
69198;BME280;56311;50.298;8.514;2023-07-29T09:24:02;97090.0;;;22.9;81.4
69198;BME280;56311;50.298;8.514;2023-07-29T09:26:01;97090.0;;;23.0;81.7
69198;BME280;56311;50.298;8.514;2023-07-29T09:28:00;97090.0;;;23.2;79.5
69198;BME280;56311;50.298;8.514;2023-07-29T09:30:00;97100.0;;;23.5;75.8
69198;BME280;56311;50.298;8.514;2023-07-29T09:32:20;97090.0;;;23.5;76.2
69198;BME280;56311;50.298;8.514;2023-07-29T09:34:01;97090.0;;;23.3;76.8
69198;BME280;56311;50.298;8.514;2023-07-29T09:36:00;97100.0;;;22.9;76.1
69198;BME280;56311;50.298;8.514;2023-07-29T09:38:00;97100.0;;;22.6;76.2
69198;BME280;56311;50.298;8.514;2023-07-29T09:40:00;97100.0;;;22.5;76.8
69198;BME280;56311;50.298;8.514;2023-07-29T09:42:01;97100.0;;;22.5;77.4
69198;BME280;56311;50.298;8.514;2023-07-29T09:44:02;97100.0;;;22.4;76.7
69198;BME280;56311;50.298;8.514;2023-07-29T09:46:00;97100.0;;;22.5;75.9
69198;BME280;56311;50.298;8.514;2023-07-29T09:48:01;97100.0;;;22.9;76.5
69198;BME280;56311;50.298;8.514;2023-07-29T09:50:00;97100.0;;;22.7;75.9
69198;BME280;56311;50.298;8.514;2023-07-29T09:52:00;97100.0;;;22.9;75.3
69198;BME280;56311;50.298;8.514;2023-07-29T09:54:02;97100.0;;;23.2;74.0
69198;BME280;56311;50.298;8.514;2023-07-29T09:56:01;97100.0;;;23.7;71.6
69198;BME280;56311;50.298;8.514;2023-07-29T09:58:01;97100.0;;;24.1;70.2
69198;BME280;56311;50.298;8.514;2023-07-29T10:00:00;97100.0;;;24.0;71.4
69198;BME280;56311;50.298;8.514;2023-07-29T10:02:00;97100.0;;;23.5;72.1
69198;BME280;56311;50.298;8.514;2023-07-29T10:04:00;97100.0;;;23.7;70.6
69198;BME280;56311;50.298;8.514;2023-07-29T10:06:01;97090.0;;;23.5;71.1
69198;BME280;56311;50.298;8.514;2023-07-29T10:08:01;97090.0;;;23.3;71.5
69198;BME280;56311;50.298;8.514;2023-07-29T10:10:01;97090.0;;;23.2;71.0
69198;BME280;56311;50.298;8.514;2023-07-29T10:12:01;97090.0;;;23.1;71.0
69198;BME280;56311;50.298;8.514;2023-07-29T10:14:01;97090.0;;;22.7;73.4
69198;BME280;56311;50.298;8.514;2023-07-29T10:16:00;97080.0;;;22.5;75.3
69198;BME280;56311;50.298;8.514;2023-07-29T10:18:01;97070.0;;;22.5;75.7
69198;BME280;56311;50.298;8.514;2023-07-29T10:20:03;97070.0;;;22.5;77.8
69198;BME280;56311;50.298;8.514;2023-07-29T10:22:02;97070.0;;;22.6;78.6
69198;BME280;56311;50.298;8.514;2023-07-29T10:24:03;97080.0;;;22.9;79.1
69198;BME280;56311;50.298;8.514;2023-07-29T10:26:02;97080.0;;;23.4;76.2
69198;BME280;56311;50.298;8.514;2023-07-29T10:28:04;97080.0;;;23.5;74.0
69198;BME280;56311;50.298;8.514;2023-07-29T10:30:01;97080.0;;;23.8;73.0
69198;BME280;56311;50.298;8.514;2023-07-29T10:32:02;97080.0;;;24.0;70.8
69198;BME280;56311;50.298;8.514;2023-07-29T10:34:00;97080.0;;;23.8;72.7
69198;BME280;56311;50.298;8.514;2023-07-29T10:36:03;97080.0;;;23.7;73.6
69198;BME280;56311;50.298;8.514;2023-07-29T10:38:01;97090.0;;;23.5;74.6
69198;BME280;56311;50.298;8.514;2023-07-29T10:40:00;97080.0;;;23.1;76.0
69198;BME280;56311;50.298;8.514;2023-07-29T10:42:02;97090.0;;;23.1;74.1
69198;BME280;56311;50.298;8.514;2023-07-29T10:44:01;97080.0;;;23.1;74.9
69198;BME280;56311;50.298;8.514;2023-07-29T10:46:18;97080.0;;;22.7;76.4
69198;BME280;56311;50.298;8.514;2023-07-29T10:48:00;97080.0;;;22.6;77.0
69198;BME280;56311;50.298;8.514;2023-07-29T10:50:01;97090.0;;;22.1;76.3
69198;BME280;56311;50.298;8.514;2023-07-29T10:52:00;97090.0;;;22.0;78.1
69198;BME280;56311;50.298;8.514;2023-07-29T10:54:03;97110.0;;;22.0;80.8